Penitentiary, Colorado
Current Conditions -  °F | °C
As of 10:55 AM on Thursday 30 Oct 2014 (Local Time) from K1V6 Reporting Station
Clear Clear  
Wind Chill: 59°   Ceiling: Unl
Heat Index: 59°   Visibility: 10mi
Dew Point: 25°   Wind: 3mph
Humidity: 27%   Direction: 70°ENE
Pressure: 30.4"   Gusts: NA
Location:  38.533°N, 105.389°W
Report Text: K1V6 301655Z AUTO 07003KT 10SM CLR 15/M04 A3040 RMK AO2
Loading
Personal Weather Stations






























Interactive Weather Map
Tropical Storm Tracking
New forecast layout! Learn more

10-Day Weather Forecast

Advertisements
Track Severe Weather on mobile